createdAt,value
2023-08-17T00:01:54.462Z,6.00
2023-08-17T00:04:21.658Z,7.43
2023-08-17T00:06:48.801Z,6.03
2023-08-17T00:09:15.928Z,5.63
2023-08-17T00:11:43.067Z,6.00
2023-08-17T00:14:11.473Z,6.70
2023-08-17T00:16:38.817Z,6.13
2023-08-17T00:19:05.894Z,6.40
2023-08-17T00:21:33.053Z,6.33
2023-08-17T00:24:00.140Z,6.23
2023-08-17T00:26:27.252Z,6.07
2023-08-17T00:28:54.324Z,7.20
2023-08-17T00:31:22.815Z,8.33
2023-08-17T00:33:49.925Z,8.17
2023-08-17T00:36:17.056Z,7.17
2023-08-17T00:38:44.174Z,7.77
2023-08-17T00:41:11.358Z,8.10
2023-08-17T00:43:38.524Z,7.40
2023-08-17T00:46:05.966Z,7.87
2023-08-17T00:48:36.048Z,7.60
2023-08-17T00:51:03.524Z,8.40
2023-08-17T00:53:31.334Z,7.83
2023-08-17T00:56:00.331Z,8.43
2023-08-17T00:58:27.895Z,8.00
2023-08-17T01:00:55.041Z,8.13
2023-08-17T01:03:22.856Z,8.70
2023-08-17T01:05:51.391Z,7.50
2023-08-17T01:08:18.524Z,7.30
2023-08-17T01:10:49.510Z,6.30
2023-08-17T01:13:19.141Z,6.43
2023-08-17T01:15:48.195Z,6.20
2023-08-17T01:18:18.970Z,6.67
2023-08-17T01:20:46.545Z,6.40
2023-08-17T01:23:15.063Z,7.27
2023-08-17T01:25:42.228Z,6.20
2023-08-17T01:28:09.693Z,7.10
2023-08-17T01:30:48.716Z,7.97
2023-08-17T01:33:17.927Z,7.73
2023-08-17T01:35:47.333Z,7.50
2023-08-17T01:38:19.212Z,7.40
2023-08-17T01:40:47.391Z,7.17
2023-08-17T01:43:15.235Z,7.00
2023-08-17T01:45:45.326Z,6.50
2023-08-17T01:48:12.530Z,6.27
2023-08-17T01:50:39.674Z,6.60
2023-08-17T01:53:06.802Z,5.83
2023-08-17T01:55:35.342Z,5.50
2023-08-17T01:58:02.511Z,5.43
2023-08-17T02:00:29.723Z,5.03
2023-08-17T02:02:56.877Z,5.23
2023-08-17T02:05:24.002Z,5.77
2023-08-17T02:07:51.090Z,5.27
2023-08-17T02:10:18.219Z,4.40
2023-08-17T02:12:46.623Z,4.70
2023-08-17T02:15:13.754Z,4.40
2023-08-17T02:17:40.943Z,4.73
2023-08-17T02:20:11.218Z,4.77
2023-08-17T02:22:38.309Z,4.73
2023-08-17T02:25:06.062Z,4.23
2023-08-17T02:27:33.318Z,4.00
2023-08-17T02:30:01.731Z,4.60
2023-08-17T02:32:29.603Z,4.40
2023-08-17T02:34:56.929Z,5.27
2023-08-17T02:37:24.513Z,4.90
2023-08-17T02:39:51.783Z,5.93
2023-08-17T02:42:18.881Z,5.37
2023-08-17T02:44:45.962Z,5.60
2023-08-17T02:47:14.383Z,5.73
2023-08-17T02:49:41.474Z,6.57
2023-08-17T02:52:08.724Z,6.07
2023-08-17T02:54:35.868Z,6.00
2023-08-17T02:57:02.957Z,6.53
2023-08-17T02:59:30.088Z,7.00
2023-08-17T03:01:57.403Z,7.50
2023-08-17T03:04:26.004Z,8.03
2023-08-17T03:06:53.175Z,7.50
2023-08-17T03:09:22.000Z,7.40
2023-08-17T03:11:49.113Z,7.67
2023-08-17T03:14:16.216Z,7.77
2023-08-17T03:16:43.493Z,7.70
2023-08-17T03:19:10.658Z,7.40
2023-08-17T03:21:39.170Z,7.30
2023-08-17T03:24:06.933Z,9.30
2023-08-17T03:26:34.025Z,8.33
2023-08-17T03:29:01.162Z,8.33
2023-08-17T03:31:28.518Z,7.97
2023-08-17T03:33:56.325Z,8.80
2023-08-17T03:36:23.615Z,8.60
2023-08-17T03:38:52.661Z,8.10
2023-08-17T03:41:20.338Z,8.77
2023-08-17T03:43:47.492Z,8.80
2023-08-17T03:46:14.847Z,7.57
2023-08-17T03:48:41.950Z,7.97
2023-08-17T03:51:09.099Z,7.53
2023-08-17T03:53:36.234Z,6.93
2023-08-17T03:56:04.905Z,8.90
2023-08-17T03:58:32.119Z,8.40
2023-08-17T04:00:59.592Z,9.50
2023-08-17T04:03:29.621Z,10.40
2023-08-17T04:05:56.755Z,10.33
2023-08-17T04:08:23.865Z,10.90
2023-08-17T04:10:50.993Z,11.37
2023-08-17T04:13:19.418Z,11.80
2023-08-17T04:15:46.552Z,11.53
2023-08-17T04:18:13.708Z,12.60
2023-08-17T04:20:40.967Z,13.57
2023-08-17T04:23:08.069Z,12.20
2023-08-17T04:25:35.168Z,12.57
2023-08-17T04:28:02.232Z,11.57
2023-08-17T04:30:30.706Z,11.97
2023-08-17T04:33:01.296Z,11.10
2023-08-17T04:35:28.573Z,11.17
2023-08-17T04:37:56.384Z,10.40
2023-08-17T04:40:23.559Z,11.00
2023-08-17T04:42:51.135Z,11.83
2023-08-17T04:45:18.357Z,9.10
2023-08-17T04:47:48.610Z,10.03
2023-08-17T04:50:16.019Z,9.23
2023-08-17T04:52:43.271Z,10.97
2023-08-17T04:55:10.359Z,9.60
2023-08-17T04:57:37.425Z,9.80
2023-08-17T05:00:07.177Z,9.07
2023-08-17T05:02:34.328Z,10.60
2023-08-17T05:05:03.955Z,9.30
2023-08-17T05:07:31.198Z,10.83
2023-08-17T05:09:58.489Z,10.33
2023-08-17T05:12:25.737Z,9.57
2023-08-17T05:14:53.214Z,9.70
2023-08-17T05:17:20.416Z,9.20
2023-08-17T05:19:47.539Z,9.33
2023-08-17T05:22:16.489Z,10.17
2023-08-17T05:24:45.095Z,8.77
2023-08-17T05:27:12.411Z,9.17
2023-08-17T05:29:39.568Z,9.27
2023-08-17T05:32:07.201Z,8.13
2023-08-17T05:34:34.784Z,9.10
2023-08-17T05:37:01.917Z,9.30
2023-08-17T05:39:32.905Z,9.63
2023-08-17T05:42:00.649Z,9.10
2023-08-17T05:44:27.757Z,8.80
2023-08-17T05:46:55.020Z,10.27
2023-08-17T05:49:22.178Z,8.87
2023-08-17T05:51:49.327Z,10.13
2023-08-17T05:54:16.596Z,9.70
2023-08-17T05:56:45.021Z,8.80
2023-08-17T05:59:12.125Z,9.30
2023-08-17T06:01:39.236Z,9.37
2023-08-17T06:04:07.023Z,9.47
2023-08-17T06:06:34.260Z,10.10
2023-08-17T06:09:01.393Z,9.27
2023-08-17T06:11:28.501Z,9.47
2023-08-17T06:13:56.964Z,8.37
2023-08-17T06:16:24.142Z,8.63
2023-08-17T06:18:51.457Z,8.70
2023-08-17T06:21:18.619Z,8.47
2023-08-17T06:23:45.655Z,8.20
2023-08-17T06:26:12.745Z,8.90
2023-08-17T06:28:40.043Z,7.60
2023-08-17T06:31:08.516Z,7.70
2023-08-17T06:33:35.677Z,7.57
2023-08-17T06:36:02.781Z,8.50
2023-08-17T06:38:29.885Z,8.27
2023-08-17T06:40:56.950Z,8.47
2023-08-17T06:43:24.032Z,7.50
2023-08-17T06:45:51.281Z,8.17
2023-08-17T06:48:19.711Z,8.40
2023-08-17T06:50:46.813Z,9.40
2023-08-17T06:53:13.865Z,9.00
2023-08-17T06:55:41.345Z,8.37
2023-08-17T06:58:08.432Z,7.80
2023-08-17T07:00:35.544Z,7.20
2023-08-17T07:03:02.801Z,8.77
2023-08-17T07:05:31.438Z,8.20
2023-08-17T07:07:58.551Z,8.20
2023-08-17T07:10:25.665Z,7.70
2023-08-17T07:12:52.806Z,9.10
2023-08-17T07:15:19.960Z,8.50
2023-08-17T07:17:47.083Z,9.33
2023-08-17T07:20:16.804Z,10.10
2023-08-17T07:22:45.861Z,9.87
2023-08-17T07:25:12.973Z,11.07
2023-08-17T07:27:40.060Z,10.70
2023-08-17T07:30:07.791Z,9.00
2023-08-17T07:32:35.289Z,9.50
2023-08-17T07:35:02.665Z,9.43
2023-08-17T07:37:30.027Z,10.40
2023-08-17T07:39:58.648Z,12.00
2023-08-17T07:42:27.488Z,11.53
2023-08-17T07:44:54.862Z,11.70
2023-08-17T07:47:21.957Z,11.73
2023-08-17T07:52:36.129Z,8.50
2023-08-17T07:55:04.934Z,8.70
2023-08-17T07:57:32.017Z,8.80
2023-08-17T07:59:59.235Z,8.80
2023-08-17T08:02:26.430Z,9.40
2023-08-17T08:04:54.592Z,10.60
2023-08-17T08:07:21.739Z,9.43
2023-08-17T08:09:48.797Z,9.90
2023-08-17T08:12:17.219Z,8.37
2023-08-17T08:14:44.301Z,9.30
2023-08-17T08:17:11.374Z,9.80
2023-08-17T08:19:38.474Z,9.73
2023-08-17T08:22:05.757Z,9.00
2023-08-17T08:24:38.084Z,8.90
2023-08-17T08:27:06.468Z,7.70
2023-08-17T08:29:35.227Z,8.30
2023-08-17T08:32:02.330Z,7.97
2023-08-17T08:34:29.382Z,9.20
2023-08-17T08:36:56.581Z,9.50
2023-08-17T08:39:23.711Z,9.40
2023-08-17T08:41:50.981Z,8.90
2023-08-17T08:44:18.183Z,8.40
2023-08-17T08:46:47.011Z,8.63
2023-08-17T08:49:14.283Z,7.60
2023-08-17T08:51:43.532Z,8.40
2023-08-17T08:54:13.601Z,8.63
2023-08-17T08:56:47.979Z,10.40
2023-08-17T08:59:15.966Z,8.97
2023-08-17T09:01:43.504Z,7.77
2023-08-17T09:04:11.998Z,12.07
2023-08-17T09:06:39.907Z,9.70
2023-08-17T09:09:07.564Z,8.90
2023-08-17T09:11:34.672Z,8.10
2023-08-17T09:14:01.900Z,10.00
2023-08-17T09:16:29.212Z,8.07
2023-08-17T09:18:56.426Z,9.40
2023-08-17T09:21:25.481Z,9.30
2023-08-17T09:23:58.895Z,8.07
2023-08-17T09:26:26.945Z,8.70
2023-08-17T09:28:54.101Z,8.90
2023-08-17T09:31:21.957Z,7.90
2023-08-17T09:33:51.087Z,8.07
2023-08-17T09:36:21.622Z,8.43
2023-08-17T09:38:50.655Z,9.40
2023-08-17T09:41:17.889Z,9.10
2023-08-17T09:43:45.026Z,10.03
2023-08-17T09:46:12.542Z,9.00
2023-08-17T09:48:39.808Z,9.17
2023-08-17T09:51:08.053Z,8.83
2023-08-17T09:53:36.524Z,9.43
2023-08-17T09:56:05.504Z,9.30
2023-08-17T09:58:32.754Z,8.10
2023-08-17T10:01:00.306Z,8.37
2023-08-17T10:03:28.762Z,7.30
2023-08-17T10:06:00.460Z,8.33
2023-08-17T10:08:29.732Z,8.60
2023-08-17T10:10:58.104Z,8.33
2023-08-17T10:13:29.655Z,8.53
2023-08-17T10:15:58.951Z,7.23
2023-08-17T10:18:30.821Z,8.60
2023-08-17T10:21:01.387Z,7.20
2023-08-17T10:23:28.770Z,7.20
2023-08-17T10:25:56.166Z,6.80
2023-08-17T10:28:23.819Z,7.40
2023-08-17T10:30:52.527Z,7.90
2023-08-17T10:33:20.033Z,8.13
2023-08-17T10:35:47.352Z,7.70
2023-08-17T10:38:14.840Z,8.00
2023-08-17T10:40:43.470Z,8.10
2023-08-17T10:43:10.938Z,7.80
2023-08-17T10:45:39.404Z,7.73
2023-08-17T10:48:25.278Z,8.20
2023-08-17T10:51:02.218Z,9.43
2023-08-17T10:53:35.164Z,9.77
2023-08-17T10:56:02.292Z,10.50
2023-08-17T10:58:32.438Z,11.03
2023-08-17T11:00:59.540Z,9.00
2023-08-17T11:05:57.234Z,8.30
2023-08-17T11:08:29.491Z,7.60
2023-08-17T11:11:00.628Z,9.07
2023-08-17T11:13:31.138Z,10.53
2023-08-17T11:16:03.359Z,8.70
2023-08-17T11:18:31.429Z,9.07
2023-08-17T11:20:58.687Z,8.20
2023-08-17T11:23:30.049Z,8.27
2023-08-17T11:25:57.396Z,8.50
2023-08-17T11:28:24.853Z,8.40
2023-08-17T11:30:58.124Z,8.40
2023-08-17T11:33:25.324Z,8.07
2023-08-17T11:35:52.381Z,7.93
2023-08-17T11:38:19.489Z,7.93
2023-08-17T11:40:47.930Z,8.50
2023-08-17T11:43:15.045Z,7.83
2023-08-17T11:45:42.196Z,8.17
2023-08-17T11:48:09.493Z,8.23
2023-08-17T11:50:40.038Z,8.20
2023-08-17T11:53:07.437Z,8.63
2023-08-17T11:55:34.667Z,8.70
2023-08-17T11:58:09.976Z,8.33
2023-08-17T12:00:37.913Z,9.00
2023-08-17T12:03:05.428Z,8.27
2023-08-17T12:05:33.585Z,9.17
2023-08-17T12:08:00.963Z,8.90
2023-08-17T12:10:29.740Z,7.80
2023-08-17T12:12:59.137Z,7.70
2023-08-17T12:15:31.563Z,6.70
2023-08-17T12:18:00.171Z,6.80
2023-08-17T12:20:27.430Z,7.70
2023-08-17T12:22:54.544Z,7.63
2023-08-17T12:25:22.388Z,13.63
2023-08-17T12:27:49.455Z,8.30
2023-08-17T12:30:26.783Z,6.97
2023-08-17T12:32:57.580Z,7.70
2023-08-17T12:35:26.232Z,7.03
2023-08-17T12:37:53.477Z,7.17
2023-08-17T12:40:20.855Z,7.10
2023-08-17T12:42:48.250Z,7.17
2023-08-17T12:45:15.479Z,7.83
2023-08-17T12:47:43.007Z,7.90
2023-08-17T12:50:11.616Z,7.10
2023-08-17T12:52:38.785Z,7.30
2023-08-17T12:55:06.237Z,7.43
2023-08-17T12:57:33.300Z,7.40
2023-08-17T13:00:00.437Z,6.90
2023-08-17T13:02:27.762Z,7.67
2023-08-17T13:04:55.058Z,6.50
2023-08-17T13:07:23.521Z,7.20
2023-08-17T13:09:50.632Z,7.43
2023-08-17T13:12:17.736Z,8.50
2023-08-17T13:14:44.863Z,7.00
2023-08-17T13:17:12.018Z,7.30
2023-08-17T13:19:39.125Z,6.93
2023-08-17T13:22:06.309Z,7.13
2023-08-17T13:24:34.728Z,6.10
2023-08-17T13:27:01.848Z,6.00
2023-08-17T13:29:28.957Z,6.03
2023-08-17T13:31:56.076Z,6.37
2023-08-17T13:34:23.228Z,6.63
2023-08-17T13:36:50.356Z,5.73
2023-08-17T13:39:17.473Z,6.50
2023-08-17T13:41:45.915Z,6.70
2023-08-17T13:44:13.037Z,6.70
2023-08-17T13:46:40.160Z,6.80
2023-08-17T13:49:07.257Z,7.07
2023-08-17T13:51:34.332Z,6.70
2023-08-17T13:54:01.392Z,7.20
2023-08-17T13:56:29.621Z,7.50
2023-08-17T13:58:58.277Z,7.90
2023-08-17T14:01:25.414Z,7.30
2023-08-17T14:03:52.807Z,7.10
2023-08-17T14:06:20.105Z,7.83
2023-08-17T14:08:47.224Z,7.90
2023-08-17T14:11:14.340Z,7.38
2023-08-17T14:13:41.437Z,6.95
2023-08-17T14:16:10.019Z,7.45
2023-08-17T14:18:37.179Z,6.13
2023-08-17T14:21:04.335Z,7.10
2023-08-17T14:23:31.582Z,7.25
2023-08-17T14:25:58.797Z,7.45
2023-08-17T14:28:25.889Z,6.65
2023-08-17T14:30:53.534Z,6.43
2023-08-17T14:33:22.137Z,6.30
2023-08-17T14:35:49.492Z,7.35
2023-08-17T14:38:16.756Z,7.03
2023-08-17T14:40:44.524Z,7.50
2023-08-17T14:43:11.793Z,7.20
2023-08-17T14:45:38.940Z,7.00
2023-08-17T14:48:06.534Z,7.53
2023-08-17T14:50:35.011Z,6.43
2023-08-17T14:53:02.124Z,5.93
2023-08-17T14:55:29.369Z,6.03
2023-08-17T14:57:56.544Z,6.10
2023-08-17T15:00:24.935Z,5.00
2023-08-17T15:02:52.254Z,6.60
2023-08-17T15:05:19.468Z,5.83
2023-08-17T15:07:47.962Z,6.17
2023-08-17T15:10:15.119Z,6.70
2023-08-17T15:12:42.258Z,6.97
2023-08-17T15:15:09.569Z,7.40
2023-08-17T15:17:37.015Z,7.13
2023-08-17T15:20:04.360Z,8.03
2023-08-17T15:22:31.490Z,7.53
2023-08-17T15:24:59.951Z,7.23
2023-08-17T15:27:27.341Z,7.60
2023-08-17T15:29:54.721Z,8.90
2023-08-17T15:32:21.897Z,8.40
2023-08-17T15:34:49.028Z,28.23
2023-08-17T15:37:16.151Z,7.57
2023-08-17T15:39:43.249Z,8.00
2023-08-17T15:42:11.667Z,6.70
2023-08-17T15:44:38.981Z,7.07
2023-08-17T15:47:06.227Z,7.07
2023-08-17T15:49:33.344Z,7.07
2023-08-17T15:52:01.434Z,6.95
2023-08-17T15:54:35.792Z,7.10
2023-08-17T15:57:04.062Z,5.78
2023-08-17T15:59:32.630Z,6.70
2023-08-17T16:01:59.758Z,6.15
2023-08-17T16:04:26.868Z,6.38
2023-08-17T16:06:54.101Z,6.13
2023-08-17T16:09:21.924Z,5.97
2023-08-17T16:11:49.029Z,5.05
2023-08-17T16:14:16.080Z,5.47
2023-08-17T16:16:44.492Z,5.65
2023-08-17T16:19:11.635Z,5.40
2023-08-17T16:21:38.865Z,5.90
2023-08-17T16:24:06.358Z,9.27
2023-08-17T16:26:34.981Z,7.53
2023-08-17T16:29:02.607Z,5.97
2023-08-17T16:31:29.817Z,5.90
2023-08-17T16:33:58.249Z,5.82
2023-08-17T16:36:25.415Z,5.95
2023-08-17T16:38:55.589Z,5.90
2023-08-17T16:41:23.088Z,5.95
2023-08-17T16:43:50.253Z,6.03
2023-08-17T16:46:17.391Z,6.60
2023-08-17T16:48:44.471Z,6.37
2023-08-17T16:51:12.834Z,6.35
2023-08-17T16:53:43.896Z,6.20
2023-08-17T16:56:11.383Z,6.40
2023-08-17T16:58:38.762Z,40.63
2023-08-17T17:01:13.583Z,6.50
2023-08-17T17:03:41.722Z,7.30
2023-08-17T17:06:08.792Z,6.80
2023-08-17T17:08:37.343Z,7.30
2023-08-17T17:11:04.461Z,7.57
2023-08-17T17:13:31.668Z,8.43
2023-08-17T17:15:58.926Z,7.43
2023-08-17T17:18:26.068Z,6.80
2023-08-17T17:20:53.239Z,7.00
2023-08-17T17:23:20.360Z,7.40
2023-08-17T17:25:48.779Z,7.50
2023-08-17T17:28:15.893Z,6.27
2023-08-17T17:30:43.043Z,6.70
2023-08-17T17:33:10.159Z,6.57
2023-08-17T17:35:37.372Z,6.77
2023-08-17T17:38:04.577Z,7.17
2023-08-17T17:40:31.665Z,6.00
2023-08-17T17:43:00.034Z,6.37
2023-08-17T17:45:27.113Z,6.23
2023-08-17T17:47:54.238Z,6.70
2023-08-17T17:50:21.316Z,7.10
2023-08-17T17:52:48.909Z,6.03
2023-08-17T17:55:16.078Z,6.00
2023-08-17T17:57:43.342Z,6.73
2023-08-17T18:00:12.666Z,7.27
2023-08-17T18:02:39.830Z,6.30
2023-08-17T18:05:07.295Z,5.53
2023-08-17T18:07:34.420Z,6.27
2023-08-17T18:10:01.568Z,6.60
2023-08-17T18:12:30.013Z,6.97
2023-08-17T18:14:57.396Z,6.00
2023-08-17T18:17:25.931Z,5.73
2023-08-17T18:19:53.327Z,6.47
2023-08-17T18:22:21.655Z,7.90
2023-08-17T18:24:48.764Z,7.70
2023-08-17T18:27:15.879Z,7.50
2023-08-17T18:29:42.931Z,7.70
2023-08-17T18:32:10.062Z,8.20
2023-08-17T18:34:38.518Z,7.90
2023-08-17T18:37:05.670Z,8.53
2023-08-17T18:39:32.804Z,8.60
2023-08-17T18:41:59.892Z,7.17
2023-08-17T18:44:26.988Z,8.90
2023-08-17T18:46:54.132Z,8.47
2023-08-17T18:49:21.240Z,9.50
2023-08-17T18:51:49.739Z,9.00
2023-08-17T18:54:16.820Z,11.00
2023-08-17T18:56:43.884Z,10.63
2023-08-17T18:59:10.914Z,9.83
2023-08-17T19:01:38.072Z,10.50
2023-08-17T19:04:05.726Z,10.77
2023-08-17T19:06:32.804Z,10.40
2023-08-17T19:09:01.196Z,10.67
2023-08-17T19:11:28.400Z,9.80
2023-08-17T19:13:55.452Z,10.00
2023-08-17T19:16:22.570Z,10.40
2023-08-17T19:18:49.705Z,10.40
2023-08-17T19:21:16.777Z,9.90
2023-08-17T19:23:43.889Z,10.47
2023-08-17T19:26:12.511Z,10.50
2023-08-17T19:28:39.590Z,10.00
2023-08-17T19:31:06.718Z,9.97
2023-08-17T19:33:34.067Z,11.63
2023-08-17T19:36:01.212Z,12.10
2023-08-17T19:38:28.261Z,12.20
2023-08-17T19:40:55.372Z,12.60
2023-08-17T19:43:23.791Z,11.30
2023-08-17T19:45:50.983Z,10.70
2023-08-17T19:48:18.144Z,11.70
2023-08-17T19:50:45.221Z,12.60
2023-08-17T19:53:12.306Z,11.90
2023-08-17T19:55:39.456Z,11.73
2023-08-17T19:58:06.594Z,12.60
2023-08-17T20:00:35.002Z,12.70
2023-08-17T20:03:02.156Z,10.63
2023-08-17T20:05:29.291Z,11.60
2023-08-17T20:07:56.546Z,12.00
2023-08-17T20:10:23.649Z,12.43
2023-08-17T20:12:50.722Z,12.90
2023-08-17T20:15:17.999Z,12.47
2023-08-17T20:17:46.481Z,13.07
2023-08-17T20:20:13.563Z,11.20
2023-08-17T20:22:40.671Z,12.83
2023-08-17T20:25:08.225Z,12.67
2023-08-17T20:27:35.280Z,13.53
2023-08-17T20:30:02.539Z,14.57
2023-08-17T20:32:29.705Z,13.97
2023-08-17T20:34:58.105Z,12.87
2023-08-17T20:37:25.211Z,12.90
2023-08-17T20:39:52.294Z,13.43
2023-08-17T20:42:19.387Z,14.20
2023-08-17T20:44:46.505Z,13.60
2023-08-17T20:47:13.550Z,14.43
2023-08-17T20:49:40.600Z,13.53
2023-08-17T20:52:09.005Z,12.20
2023-08-17T20:54:36.130Z,15.30
2023-08-17T20:57:03.199Z,15.70
2023-08-17T20:59:30.381Z,15.50
2023-08-17T21:01:57.506Z,14.60
2023-08-17T21:04:24.720Z,14.87
2023-08-17T21:06:51.760Z,16.07
2023-08-17T21:09:20.205Z,14.50
2023-08-17T21:11:47.315Z,15.87
2023-08-17T21:14:14.376Z,15.37
2023-08-17T21:16:41.479Z,16.33
2023-08-17T21:19:08.546Z,16.00
2023-08-17T21:21:35.656Z,15.20
2023-08-17T21:24:02.767Z,14.30
2023-08-17T21:26:31.219Z,16.83
2023-08-17T21:28:58.298Z,16.13
2023-08-17T21:31:25.818Z,15.90
2023-08-17T21:33:52.935Z,15.03
2023-08-17T21:36:20.017Z,16.10
2023-08-17T21:38:47.102Z,15.60
2023-08-17T21:41:14.239Z,16.47
2023-08-17T21:43:42.705Z,15.47
2023-08-17T21:46:09.763Z,17.57
2023-08-17T21:48:36.857Z,16.77
2023-08-17T21:51:04.380Z,16.20
2023-08-17T21:53:31.553Z,18.53
2023-08-17T21:55:58.653Z,17.40
2023-08-17T21:58:25.732Z,17.00
2023-08-17T22:00:54.144Z,16.93
2023-08-17T22:03:21.325Z,16.07
2023-08-17T22:05:48.489Z,16.20
2023-08-17T22:08:15.976Z,17.87
2023-08-17T22:10:43.206Z,19.30
2023-08-17T22:13:10.485Z,18.57
2023-08-17T22:15:37.584Z,18.80
2023-08-17T22:18:06.375Z,16.70
2023-08-17T22:20:33.621Z,17.27
2023-08-17T22:23:00.735Z,19.70
2023-08-17T22:25:27.814Z,16.80
2023-08-17T22:27:54.904Z,15.17
2023-08-17T22:30:21.953Z,17.40
2023-08-17T22:32:49.049Z,17.03
2023-08-17T22:35:17.615Z,19.00
2023-08-17T22:37:44.707Z,19.13
2023-08-17T22:40:12.085Z,20.40
2023-08-17T22:42:39.169Z,20.67
2023-08-17T22:45:06.674Z,19.93
2023-08-17T22:47:33.802Z,18.87
2023-08-17T22:50:00.922Z,20.87
2023-08-17T22:52:29.380Z,20.70
2023-08-17T22:54:56.498Z,21.43
2023-08-17T22:57:23.605Z,20.83
2023-08-17T22:59:50.694Z,21.13
2023-08-17T23:02:17.896Z,21.40
2023-08-17T23:04:45.005Z,20.40
2023-08-17T23:07:12.090Z,22.60
2023-08-17T23:09:40.481Z,21.30
2023-08-17T23:12:08.095Z,20.70
2023-08-17T23:14:35.572Z,21.70
2023-08-17T23:17:02.811Z,16.10
2023-08-17T23:19:29.938Z,17.50
2023-08-17T23:21:57.016Z,18.50
2023-08-17T23:24:24.161Z,20.70
2023-08-17T23:26:52.624Z,22.43
2023-08-17T23:29:19.724Z,21.70
2023-08-17T23:31:46.855Z,20.23
2023-08-17T23:34:14.019Z,21.30
2023-08-17T23:36:41.113Z,20.30
2023-08-17T23:39:08.216Z,19.73
2023-08-17T23:41:35.377Z,19.30
2023-08-17T23:44:03.902Z,22.07
2023-08-17T23:46:31.050Z,19.77
2023-08-17T23:48:58.162Z,22.07
2023-08-17T23:51:25.299Z,21.27
2023-08-17T23:53:52.353Z,18.00
2023-08-17T23:56:19.432Z,18.17
2023-08-17T23:58:46.499Z,18.90
